Time;durP1;ratioP1;P1;durP2;ratioP2;P2;SDS_P1;SDS_P2;PMS_P1;PMS_P2;Temp;Humidity;BMP_temperature;BMP_pressure;BME280_temperature;BME280_humidity;BME280_pressure;Samples;Min_cycle;Max_cycle;Signal;HPM_P1;HPM_P2
2022/12/28 00:02:23;;;;;;;16.52;10.65;;;3.20;99.90;;;;;;5072258;28;20204;-64
2022/12/28 00:04:51;;;;;;;14.80;10.55;;;3.20;99.90;;;;;;5073776;28;20224;-65
2022/12/28 00:07:20;;;;;;;15.55;10.38;;;3.20;99.90;;;;;;5058827;28;20204;-65
2022/12/28 00:09:48;;;;;;;13.35;10.30;;;3.30;99.90;;;;;;5055077;28;20227;-64
2022/12/28 00:12:16;;;;;;;14.75;9.10;;;3.30;99.90;;;;;;5056559;28;20571;-65
2022/12/28 00:14:44;;;;;;;15.52;10.80;;;3.30;99.90;;;;;;5066180;28;20652;-64
2022/12/28 00:17:11;;;;;;;16.20;10.43;;;3.30;99.90;;;;;;5055890;28;20283;-65
2022/12/28 00:19:39;;;;;;;17.08;9.10;;;3.30;99.90;;;;;;5061833;28;20200;-65
2022/12/28 00:22:07;;;;;;;12.90;9.57;;;3.30;99.90;;;;;;5064274;28;20669;-65
2022/12/28 00:24:37;;;;;;;14.13;8.85;;;3.40;99.90;;;;;;5052875;28;20220;-65
2022/12/28 00:27:05;;;;;;;14.57;8.48;;;3.40;99.90;;;;;;5052609;28;20212;-64
2022/12/28 00:29:33;;;;;;;21.48;10.15;;;3.40;99.90;;;;;;5052462;28;20201;-64
2022/12/28 00:32:01;;;;;;;15.65;9.40;;;3.50;99.90;;;;;;5062695;28;20208;-65
2022/12/28 00:34:28;;;;;;;11.05;8.43;;;3.50;99.90;;;;;;5072649;28;20476;-65
2022/12/28 00:36:56;;;;;;;11.80;8.38;;;3.50;99.90;;;;;;5072906;28;20214;-65
2022/12/28 00:39:24;;;;;;;13.23;8.02;;;3.60;99.90;;;;;;5072232;28;20207;-65
2022/12/28 00:41:54;;;;;;;10.98;8.85;;;3.60;99.90;;;;;;5073241;28;20207;-65
2022/12/28 00:44:22;;;;;;;12.95;8.27;;;3.70;99.90;;;;;;5071906;28;20713;-66
2022/12/28 00:46:50;;;;;;;9.00;7.18;;;3.70;99.90;;;;;;5072734;28;20204;-66
2022/12/28 00:49:19;;;;;;;10.60;7.75;;;3.70;99.90;;;;;;5072608;28;20200;-65
2022/12/28 00:51:47;;;;;;;9.88;7.00;;;3.70;99.90;;;;;;5073188;28;20681;-66
2022/12/28 00:54:15;;;;;;;9.95;7.88;;;3.80;99.90;;;;;;5073489;28;20206;-66
2022/12/28 00:56:43;;;;;;;14.10;8.10;;;3.80;99.90;;;;;;5073794;28;20214;-66
2022/12/28 00:59:12;;;;;;;14.27;8.05;;;3.70;99.90;;;;;;5060009;28;20236;-66
2022/12/28 01:01:40;;;;;;;9.02;7.88;;;3.70;99.90;;;;;;5062081;28;20210;-66
2022/12/28 01:04:08;;;;;;;11.88;8.23;;;3.80;99.90;;;;;;5056819;28;20204;-66
2022/12/28 01:06:36;;;;;;;14.10;8.73;;;3.80;99.90;;;;;;5066786;28;20678;-67
2022/12/28 01:09:05;;;;;;;10.90;7.32;;;3.80;99.90;;;;;;5059294;28;20558;-66
2022/12/28 01:11:33;;;;;;;10.25;7.60;;;3.80;99.90;;;;;;5070865;28;20595;-65
2022/12/28 01:14:02;;;;;;;10.25;7.90;;;3.80;99.90;;;;;;5066433;28;20242;-66
2022/12/28 01:16:33;;;;;;;13.50;8.63;;;3.80;99.90;;;;;;5054117;28;20223;-66
2022/12/28 01:19:03;;;;;;;11.88;9.68;;;3.80;99.90;;;;;;5057461;28;20192;-66
2022/12/28 01:21:33;;;;;;;10.55;7.57;;;3.80;99.90;;;;;;5071532;28;20600;-66
2022/12/28 01:24:03;;;;;;;10.05;8.82;;;3.80;99.90;;;;;;5072354;28;20211;-65
2022/12/28 01:26:33;;;;;;;15.27;9.88;;;3.80;99.90;;;;;;5071943;28;20617;-66
2022/12/28 01:29:01;;;;;;;18.38;9.25;;;3.90;99.90;;;;;;5059274;28;20239;-66
2022/12/28 01:31:34;;;;;;;11.65;9.68;;;3.90;99.90;;;;;;5058784;28;20192;-66
2022/12/28 01:34:02;;;;;;;11.35;8.73;;;3.90;99.90;;;;;;5072261;28;20208;-66
2022/12/28 01:36:33;;;;;;;14.45;7.75;;;3.90;99.90;;;;;;5072146;28;20752;-66
2022/12/28 01:39:04;;;;;;;13.18;9.55;;;3.90;99.90;;;;;;5072204;28;20549;-66
2022/12/28 01:41:35;;;;;;;13.18;9.27;;;3.90;99.90;;;;;;5072758;28;20552;-66
2022/12/28 01:44:42;;;;;;;14.73;9.00;;;3.90;99.90;;;;;;5076012;28;20191;-66
2022/12/28 01:47:15;;;;;;;14.02;8.93;;;3.90;99.90;;;;;;5070383;28;20200;-65
2022/12/28 01:49:47;;;;;;;9.55;8.55;;;3.90;99.90;;;;;;5075387;28;20253;-66
2022/12/28 01:52:21;;;;;;;12.23;9.07;;;3.90;99.90;;;;;;5075647;28;20195;-66
2022/12/28 01:54:53;;;;;;;17.17;9.48;;;3.90;99.90;;;;;;5075448;28;20614;-65
2022/12/28 01:57:27;;;;;;;13.07;8.82;;;3.90;99.90;;;;;;5075682;28;20558;-65
2022/12/28 02:00:00;;;;;;;12.90;9.38;;;3.90;99.90;;;;;;5073459;28;20728;-65
2022/12/28 02:02:30;;;;;;;12.35;9.00;;;3.90;99.90;;;;;;5075050;28;20554;-65
2022/12/28 02:04:59;;;;;;;12.48;10.07;;;3.90;99.90;;;;;;5072667;28;20274;-66
2022/12/28 02:07:36;;;;;;;13.40;9.07;;;3.90;99.90;;;;;;5072271;28;20249;-66
2022/12/28 02:10:05;;;;;;;12.07;8.68;;;3.90;99.90;;;;;;5055149;28;20200;-66
2022/12/28 02:12:34;;;;;;;10.10;8.88;;;3.90;99.90;;;;;;5055511;28;20204;-66
2022/12/28 02:15:03;;;;;;;13.23;8.88;;;3.90;99.90;;;;;;5053461;28;20215;-66
2022/12/28 02:17:33;;;;;;;9.75;8.30;;;4.00;99.90;;;;;;5054878;28;20212;-66
2022/12/28 02:20:01;;;;;;;11.52;8.32;;;4.00;99.90;;;;;;5054598;28;20209;-66
2022/12/28 02:22:59;;;;;;;11.35;8.50;;;4.00;99.90;;;;;;5057478;28;20229;-66
2022/12/28 02:26:02;;;;;;;10.23;8.30;;;4.10;99.90;;;;;;5054603;28;20204;-66
2022/12/28 02:29:05;;;;;;;12.45;8.98;;;4.10;99.90;;;;;;5053896;28;20214;-66
2022/12/28 02:31:39;;;;;;;9.75;8.20;;;4.10;99.90;;;;;;5054877;28;20654;-66
2022/12/28 02:34:16;;;;;;;13.43;8.95;;;4.10;99.90;;;;;;5054369;28;20261;-66
2022/12/28 02:36:52;;;;;;;11.63;8.50;;;4.20;99.90;;;;;;5053667;28;20196;-65
2022/12/28 02:39:24;;;;;;;12.30;8.52;;;4.20;99.90;;;;;;5053957;28;20192;-65
2022/12/28 02:41:54;;;;;;;12.07;7.68;;;4.30;99.90;;;;;;5069010;28;20196;-65
2022/12/28 02:50:07;;;;;;;13.70;8.05;;;4.20;99.90;;;;;;5053990;28;20193;-66
2022/12/28 02:53:10;;;;;;;8.77;7.40;;;4.30;99.90;;;;;;5054027;28;20553;-66
2022/12/28 02:56:08;;;;;;;11.15;7.38;;;4.30;99.90;;;;;;5053088;28;20198;-66
2022/12/28 02:59:10;;;;;;;9.45;7.40;;;4.30;99.90;;;;;;5053891;28;20236;-66
2022/12/28 03:01:59;;;;;;;9.07;7.30;;;4.40;99.90;;;;;;5047326;28;20205;-64
2022/12/28 03:04:34;;;;;;;10.30;6.88;;;4.40;99.90;;;;;;5051886;28;20195;-65
2022/12/28 03:10:01;;;;;;;8.75;6.75;;;4.40;99.90;;;;;;5074031;28;20188;-66
2022/12/28 03:12:33;;;;;;;8.68;6.60;;;4.50;99.90;;;;;;5057913;28;20192;-65
2022/12/28 03:15:08;;;;;;;9.05;6.70;;;4.50;99.90;;;;;;5054123;28;20192;-67
2022/12/28 03:31:45;;;;;;;8.35;6.03;;;4.60;99.90;;;;;;5052196;28;20205;-65
2022/12/28 03:34:17;;;;;;;10.60;6.20;;;4.60;99.90;;;;;;5068199;28;20199;-66
2022/12/28 03:36:55;;;;;;;11.50;6.50;;;4.60;99.90;;;;;;5072137;28;20216;-66
2022/12/28 03:39:36;;;;;;;10.40;6.10;;;4.50;99.90;;;;;;5072457;28;20192;-66
2022/12/28 03:45:06;;;;;;;9.82;6.78;;;4.50;99.90;;;;;;5052923;28;20270;-65
2022/12/28 03:47:37;;;;;;;6.78;6.18;;;4.60;99.90;;;;;;5060900;28;20230;-65
2022/12/28 03:50:07;;;;;;;6.00;5.40;;;4.60;99.90;;;;;;5074123;28;20200;-65
2022/12/28 03:52:36;;;;;;;9.10;6.25;;;4.60;99.90;;;;;;5072866;28;20188;-65
2022/12/28 03:55:06;;;;;;;8.60;5.80;;;4.60;99.90;;;;;;5056217;28;20235;-65
2022/12/28 03:57:52;;;;;;;7.15;5.55;;;4.60;99.90;;;;;;5071976;28;20214;-65
2022/12/28 04:00:24;;;;;;;7.35;6.45;;;4.60;99.90;;;;;;5057639;28;20594;-67
2022/12/28 04:02:54;;;;;;;6.40;5.78;;;4.70;99.90;;;;;;5060943;28;20204;-66
2022/12/28 04:05:24;;;;;;;7.72;5.72;;;4.70;99.90;;;;;;5057013;28;20208;-66
2022/12/28 04:07:52;;;;;;;8.90;6.35;;;4.60;99.90;;;;;;5060762;28;20215;-66
2022/12/28 04:10:20;;;;;;;5.97;4.95;;;4.60;99.90;;;;;;5071769;28;20204;-66
2022/12/28 04:12:48;;;;;;;9.48;5.47;;;4.60;99.90;;;;;;5071399;28;20546;-64
2022/12/28 04:15:28;;;;;;;9.88;5.60;;;4.60;99.90;;;;;;5072323;28;20279;-65
2022/12/28 04:17:55;;;;;;;7.25;6.45;;;4.70;99.90;;;;;;5073144;28;20222;-65
2022/12/28 04:20:25;;;;;;;8.73;6.05;;;4.70;99.90;;;;;;5073817;28;20283;-66
2022/12/28 04:22:53;;;;;;;6.07;5.35;;;4.70;99.90;;;;;;5066443;28;20258;-66
2022/12/28 04:25:22;;;;;;;5.95;4.85;;;4.70;99.90;;;;;;5068139;28;20200;-67
2022/12/28 04:27:51;;;;;;;6.47;5.78;;;4.70;99.90;;;;;;5061141;28;20240;-65
2022/12/28 04:30:38;;;;;;;6.38;5.22;;;4.80;99.90;;;;;;5073959;28;20190;-65
2022/12/28 04:33:05;;;;;;;9.43;6.57;;;4.70;99.90;;;;;;5054064;28;20253;-66
2022/12/28 04:35:35;;;;;;;6.68;5.55;;;4.70;99.90;;;;;;5052040;28;20635;-66
2022/12/28 04:38:03;;;;;;;7.95;6.80;;;4.70;99.90;;;;;;5052254;28;20720;-66
2022/12/28 04:40:31;;;;;;;9.90;6.45;;;4.70;99.90;;;;;;5052718;28;20608;-66
2022/12/28 04:43:00;;;;;;;5.88;4.95;;;4.70;99.90;;;;;;5056463;28;20214;-66
2022/12/28 04:45:28;;;;;;;6.05;5.43;;;4.70;99.90;;;;;;5064577;28;20195;-66
2022/12/28 04:47:57;;;;;;;9.00;6.47;;;4.60;99.90;;;;;;5072915;28;20702;-66
2022/12/28 04:50:26;;;;;;;7.90;6.03;;;4.60;99.90;;;;;;5052783;28;20211;-66
2022/12/28 04:52:55;;;;;;;8.07;5.18;;;4.60;99.90;;;;;;5053480;28;20201;-66
2022/12/28 04:55:23;;;;;;;6.75;5.95;;;4.60;99.90;;;;;;5053042;28;20211;-66
2022/12/28 04:57:51;;;;;;;6.63;5.53;;;4.60;99.90;;;;;;5052802;28;20606;-66
2022/12/28 05:00:19;;;;;;;5.10;4.60;;;4.60;99.90;;;;;;5052538;28;20232;-66
2022/12/28 05:02:47;;;;;;;9.43;6.43;;;4.70;99.90;;;;;;5064520;28;20206;-66
2022/12/28 05:05:15;;;;;;;6.07;5.47;;;4.70;99.90;;;;;;5056917;28;20663;-66
2022/12/28 05:07:43;;;;;;;5.75;5.15;;;4.70;99.90;;;;;;5053777;28;20221;-66
2022/12/28 05:10:13;;;;;;;7.32;5.70;;;4.70;99.90;;;;;;5071543;28;20561;-66
2022/12/28 05:12:41;;;;;;;7.70;6.05;;;4.60;99.90;;;;;;5073040;28;20208;-66
2022/12/28 05:15:10;;;;;;;10.65;5.78;;;4.70;99.90;;;;;;5072481;28;20567;-66
2022/12/28 05:17:38;;;;;;;6.00;5.50;;;4.70;99.90;;;;;;5074877;28;20208;-66
2022/12/28 05:20:07;;;;;;;5.95;5.35;;;4.60;99.90;;;;;;5072941;28;20245;-66
2022/12/28 05:22:35;;;;;;;6.03;5.38;;;4.70;99.90;;;;;;5056517;28;20623;-66
2022/12/28 05:25:03;;;;;;;5.90;5.28;;;4.70;99.90;;;;;;5063862;28;20204;-65
2022/12/28 05:27:33;;;;;;;6.20;4.95;;;4.70;99.90;;;;;;5058061;28;20240;-65
2022/12/28 05:30:00;;;;;;;5.40;4.90;;;4.70;99.90;;;;;;5059607;28;20640;-66
2022/12/28 05:32:28;;;;;;;8.57;5.50;;;4.70;99.90;;;;;;5076139;28;20204;-66
2022/12/28 05:34:56;;;;;;;6.20;5.60;;;4.80;99.90;;;;;;5072975;28;20257;-66
2022/12/28 05:37:24;;;;;;;5.65;4.57;;;4.80;99.90;;;;;;5067272;28;20211;-66
2022/12/28 05:39:52;;;;;;;5.93;5.22;;;4.90;99.90;;;;;;5055989;28;20205;-66
2022/12/28 05:42:20;;;;;;;8.65;4.15;;;4.90;99.90;;;;;;5069690;28;20214;-66
2022/12/28 05:44:49;;;;;;;8.82;4.90;;;4.90;99.90;;;;;;5076272;28;20207;-66
2022/12/28 05:47:17;;;;;;;8.48;4.22;;;4.90;99.90;;;;;;5075444;28;20290;-66
2022/12/28 05:49:46;;;;;;;5.05;4.60;;;5.00;99.90;;;;;;5076003;28;20200;-66
2022/12/28 05:52:14;;;;;;;5.80;4.68;;;4.90;99.90;;;;;;5074952;28;20230;-67
2022/12/28 05:54:41;;;;;;;4.05;3.70;;;5.00;99.90;;;;;;5059657;28;20208;-65
2022/12/28 05:57:09;;;;;;;5.53;4.03;;;4.90;99.90;;;;;;5055911;28;20219;-66
2022/12/28 05:59:37;;;;;;;4.57;3.83;;;4.90;99.90;;;;;;5055915;28;20236;-66
2022/12/28 06:02:06;;;;;;;4.30;4.00;;;5.00;99.90;;;;;;5054873;28;20205;-66
2022/12/28 06:04:34;;;;;;;5.35;4.30;;;4.90;99.90;;;;;;5054833;28;20201;-66
2022/12/28 06:07:02;;;;;;;6.50;4.05;;;4.90;99.90;;;;;;5055298;28;20232;-65
2022/12/28 06:09:31;;;;;;;4.82;3.65;;;4.90;99.90;;;;;;5069316;28;20207;-66
2022/12/28 06:11:59;;;;;;;4.95;3.95;;;4.90;99.90;;;;;;5075650;28;20207;-66
2022/12/28 06:14:27;;;;;;;4.07;3.38;;;4.90;99.90;;;;;;5055106;28;20293;-66
2022/12/28 06:16:55;;;;;;;3.90;3.50;;;4.90;99.90;;;;;;5055678;28;20201;-66
2022/12/28 06:19:25;;;;;;;4.50;4.00;;;4.90;99.90;;;;;;5054055;28;20211;-65
2022/12/28 06:21:52;;;;;;;3.58;3.28;;;4.90;99.90;;;;;;5055340;28;20205;-66
2022/12/28 06:24:20;;;;;;;5.15;3.55;;;4.90;99.90;;;;;;5059545;28;20208;-66
2022/12/28 06:26:48;;;;;;;3.65;3.35;;;4.90;99.90;;;;;;5055107;28;20204;-66
2022/12/28 06:29:16;;;;;;;5.47;4.40;;;4.90;99.90;;;;;;5054019;28;20208;-66
2022/12/28 06:31:46;;;;;;;4.70;4.03;;;4.90;99.90;;;;;;5075365;28;20214;-66
2022/12/28 06:34:14;;;;;;;10.23;7.35;;;5.00;99.90;;;;;;5074792;28;20208;-66
2022/12/28 06:36:45;;;;;;;9.07;4.57;;;5.00;99.90;;;;;;5075013;28;20265;-66
2022/12/28 06:39:14;;;;;;;4.95;3.40;;;5.00;99.90;;;;;;5074976;28;20553;-66
2022/12/28 06:41:42;;;;;;;4.25;2.95;;;4.90;99.90;;;;;;5075137;28;20210;-66
2022/12/28 06:44:12;;;;;;;4.22;3.83;;;5.00;99.90;;;;;;5074766;28;20208;-67
2022/12/28 06:46:40;;;;;;;3.50;3.30;;;4.90;99.90;;;;;;5074753;28;20204;-66
2022/12/28 06:49:08;;;;;;;5.15;3.08;;;4.90;99.90;;;;;;5074378;28;20269;-66
2022/12/28 06:51:40;;;;;;;9.88;3.85;;;4.90;99.90;;;;;;5074817;28;20241;-66
2022/12/28 06:54:10;;;;;;;9.20;5.60;;;4.90;99.90;;;;;;5074284;28;20200;-66
2022/12/28 06:56:38;;;;;;;6.22;4.80;;;4.90;99.90;;;;;;5074530;28;20195;-66
2022/12/28 06:59:06;;;;;;;4.15;2.60;;;4.90;99.90;;;;;;5063788;28;20599;-66
2022/12/28 07:01:36;;;;;;;5.93;3.58;;;4.90;99.90;;;;;;5056209;28;20325;-66
2022/12/28 07:04:06;;;;;;;5.15;3.42;;;4.90;99.90;;;;;;5053240;28;20209;-66
2022/12/28 07:06:36;;;;;;;4.15;3.85;;;4.90;99.90;;;;;;5054863;28;20218;-66
2022/12/28 07:09:06;;;;;;;7.22;3.97;;;5.00;99.90;;;;;;5054855;28;20297;-66
2022/12/28 07:11:36;;;;;;;3.65;2.78;;;5.00;99.90;;;;;;5064816;28;20200;-66
2022/12/28 07:14:04;;;;;;;3.60;2.90;;;4.90;99.90;;;;;;5061474;28;20206;-65
2022/12/28 07:16:32;;;;;;;5.05;3.17;;;5.00;99.90;;;;;;5057404;28;20517;-65
2022/12/28 07:19:00;;;;;;;3.92;3.05;;;5.00;99.90;;;;;;5056318;28;20207;-66
2022/12/28 07:21:30;;;;;;;4.50;2.75;;;5.00;99.90;;;;;;5073322;28;20214;-66
2022/12/28 07:23:59;;;;;;;12.55;3.17;;;5.00;99.90;;;;;;5072309;28;20226;-67
2022/12/28 07:26:29;;;;;;;4.05;2.30;;;5.10;99.90;;;;;;5072074;28;20671;-65
2022/12/28 07:29:01;;;;;;;7.28;2.60;;;5.10;99.90;;;;;;5072995;28;20228;-65
2022/12/28 07:31:31;;;;;;;2.80;2.50;;;5.10;99.90;;;;;;5067792;28;20199;-65
2022/12/28 07:34:00;;;;;;;3.28;2.40;;;5.10;99.90;;;;;;5053250;28;20211;-67
2022/12/28 07:36:30;;;;;;;5.40;2.35;;;5.10;99.90;;;;;;5053160;28;20683;-67
2022/12/28 07:38:59;;;;;;;2.20;2.10;;;5.20;99.90;;;;;;5053170;28;20200;-66
2022/12/28 07:41:29;;;;;;;2.78;2.58;;;5.20;99.90;;;;;;5052879;28;20609;-66
2022/12/28 07:44:01;;;;;;;4.28;2.90;;;5.20;99.90;;;;;;5053353;28;20199;-66
2022/12/28 07:46:31;;;;;;;5.38;2.88;;;5.30;99.90;;;;;;5063158;28;20200;-66
2022/12/28 07:48:59;;;;;;;3.05;2.15;;;5.30;99.90;;;;;;5072957;28;20592;-66
2022/12/28 07:51:29;;;;;;;4.82;2.28;;;5.30;99.90;;;;;;5072613;28;20211;-66
2022/12/28 07:53:58;;;;;;;2.40;2.20;;;5.40;99.90;;;;;;5073238;28;20225;-66
2022/12/28 07:56:28;;;;;;;3.25;2.30;;;5.40;99.90;;;;;;5071127;28;20204;-66
2022/12/28 07:58:58;;;;;;;4.55;2.15;;;5.40;99.90;;;;;;5060783;28;20216;-65
2022/12/28 08:01:30;;;;;;;5.78;2.40;;;5.40;99.90;;;;;;5057550;28;20210;-66
2022/12/28 08:04:00;;;;;;;3.38;2.80;;;5.50;99.90;;;;;;5059863;28;20550;-66
2022/12/28 08:06:29;;;;;;;1.85;1.73;;;5.50;99.90;;;;;;5060607;28;20200;-66
2022/12/28 08:09:00;;;;;;;3.05;2.10;;;5.50;99.90;;;;;;5058734;28;20219;-66
2022/12/28 08:11:29;;;;;;;2.72;2.08;;;5.50;99.90;;;;;;5060842;28;20192;-66
2022/12/28 08:13:58;;;;;;;2.58;2.38;;;5.50;99.90;;;;;;5060206;28;20203;-66
2022/12/28 08:16:31;;;;;;;2.10;2.00;;;5.50;99.90;;;;;;5061875;28;20223;-66
2022/12/28 08:19:00;;;;;;;4.72;2.65;;;5.60;99.90;;;;;;5059843;28;20741;-66
2022/12/28 08:21:30;;;;;;;2.53;2.10;;;5.60;99.90;;;;;;5058823;28;20210;-66
2022/12/28 08:23:58;;;;;;;3.60;3.30;;;5.60;99.90;;;;;;5059251;28;20226;-66
2022/12/28 08:26:28;;;;;;;2.05;1.95;;;5.60;99.90;;;;;;5052905;28;20215;-66
2022/12/28 08:28:58;;;;;;;3.40;3.20;;;5.60;99.90;;;;;;5057297;28;20217;-66
2022/12/28 08:31:30;;;;;;;2.97;2.10;;;5.60;99.90;;;;;;5052442;28;20200;-65
2022/12/28 08:34:00;;;;;;;2.70;2.00;;;5.70;99.90;;;;;;5064210;28;20197;-65
2022/12/28 08:36:28;;;;;;;4.82;3.05;;;5.70;99.90;;;;;;5063816;28;20203;-65
2022/12/28 08:38:57;;;;;;;2.92;2.72;;;5.70;99.90;;;;;;5071831;28;20204;-65
2022/12/28 08:41:27;;;;;;;4.70;2.40;;;5.80;99.90;;;;;;5059920;28;20207;-66
2022/12/28 08:43:56;;;;;;;2.10;1.95;;;5.90;99.90;;;;;;5059299;28;20192;-66
2022/12/28 08:46:25;;;;;;;3.65;2.53;;;5.90;99.90;;;;;;5062203;28;20549;-65
2022/12/28 08:48:56;;;;;;;2.17;2.00;;;5.90;99.90;;;;;;5059390;28;20348;-66
2022/12/28 08:51:25;;;;;;;3.00;2.47;;;6.00;99.90;;;;;;5063853;28;20203;-66
2022/12/28 08:53:54;;;;;;;2.47;2.28;;;6.00;99.90;;;;;;5064516;28;20268;-65
2022/12/28 08:56:23;;;;;;;2.65;2.10;;;6.10;99.90;;;;;;5065390;28;20204;-65
2022/12/28 08:58:52;;;;;;;2.60;2.40;;;6.00;99.90;;;;;;5063831;28;20230;-66
2022/12/28 09:01:21;;;;;;;2.55;2.35;;;6.10;99.90;;;;;;5066500;28;20218;-67
2022/12/28 09:03:52;;;;;;;2.20;2.00;;;6.20;99.90;;;;;;5064120;28;20196;-65
2022/12/28 09:06:23;;;;;;;3.85;2.47;;;6.20;99.90;;;;;;5064084;28;20209;-66
2022/12/28 09:08:53;;;;;;;4.22;2.30;;;6.20;99.90;;;;;;5053617;28;20215;-65
2022/12/28 09:11:22;;;;;;;2.97;2.33;;;6.30;99.90;;;;;;5053553;28;20564;-65
2022/12/28 09:13:50;;;;;;;2.95;1.85;;;6.30;99.90;;;;;;5062888;28;20210;-65
2022/12/28 09:16:22;;;;;;;1.73;1.60;;;6.40;99.90;;;;;;5067069;28;20673;-65
2022/12/28 09:18:54;;;;;;;2.35;1.60;;;6.40;99.90;;;;;;5066661;28;20188;-66
2022/12/28 09:21:25;;;;;;;3.08;2.33;;;6.40;99.90;;;;;;5062971;28;20204;-65
2022/12/28 09:23:54;;;;;;;5.25;2.65;;;6.40;99.90;;;;;;5066745;28;20599;-65
2022/12/28 09:26:24;;;;;;;1.92;1.83;;;6.50;99.90;;;;;;5075090;28;20200;-65
2022/12/28 09:28:53;;;;;;;3.42;2.85;;;6.50;99.90;;;;;;5078417;28;20211;-65
2022/12/28 09:31:23;;;;;;;2.75;1.70;;;6.50;99.90;;;;;;5075311;28;20258;-66
2022/12/28 09:34:01;;;;;;;3.05;2.25;;;6.60;99.90;;;;;;5074345;28;20281;-67
2022/12/28 09:36:32;;;;;;;2.30;1.95;;;6.60;99.90;;;;;;5066356;28;20736;-65
2022/12/28 09:39:03;;;;;;;5.50;2.30;;;6.60;99.90;;;;;;5055867;28;20270;-65
2022/12/28 09:41:35;;;;;;;4.43;4.00;;;6.60;99.90;;;;;;5073943;28;20212;-65
2022/12/28 09:44:26;;;;;;;4.03;2.28;;;6.70;99.90;;;;;;5055688;28;20555;-65
2022/12/28 09:47:00;;;;;;;2.45;2.15;;;6.70;99.90;;;;;;5077382;28;20289;-65
2022/12/28 09:49:36;;;;;;;3.20;2.45;;;6.70;99.90;;;;;;5095512;28;20210;-65
2022/12/28 09:52:20;;;;;;;6.30;2.35;;;6.80;99.90;;;;;;5086981;28;20260;-65
2022/12/28 09:54:48;;;;;;;2.55;1.92;;;6.90;99.90;;;;;;5075099;28;20218;-65
2022/12/28 09:57:18;;;;;;;4.18;2.08;;;6.90;99.90;;;;;;5074424;28;20518;-66
2022/12/28 09:59:48;;;;;;;3.05;1.85;;;7.00;99.90;;;;;;5075088;28;20228;-66
2022/12/28 10:02:23;;;;;;;1.80;1.60;;;7.00;99.90;;;;;;5073297;28;20192;-66
2022/12/28 10:04:51;;;;;;;4.00;2.35;;;7.10;99.90;;;;;;5074485;28;20188;-66
2022/12/28 10:07:23;;;;;;;2.42;1.73;;;7.20;99.90;;;;;;5067595;28;20197;-66
2022/12/28 10:09:52;;;;;;;8.05;2.25;;;7.20;99.90;;;;;;5058147;28;20227;-66
2022/12/28 10:12:23;;;;;;;2.38;2.10;;;7.20;99.90;;;;;;5074716;28;20233;-66
2022/12/28 10:14:53;;;;;;;9.10;1.75;;;7.30;99.90;;;;;;5075002;28;20195;-66
2022/12/28 10:17:29;;;;;;;2.20;1.65;;;7.40;99.90;;;;;;5074782;28;20579;-65
2022/12/28 10:19:58;;;;;;;3.10;2.00;;;7.50;99.90;;;;;;5075374;28;20184;-66
2022/12/28 10:22:36;;;;;;;6.80;2.15;;;7.50;99.90;;;;;;5074452;28;20228;-65
2022/12/28 10:25:14;;;;;;;1.70;1.52;;;7.60;99.90;;;;;;5074820;28;20198;-65
2022/12/28 10:27:42;;;;;;;2.88;2.58;;;7.60;99.90;;;;;;5074334;28;20203;-67
2022/12/28 10:30:16;;;;;;;2.45;2.25;;;7.70;99.90;;;;;;5074623;28;20223;-66
2022/12/28 10:32:52;;;;;;;3.00;1.67;;;7.70;99.90;;;;;;5067112;28;20212;-66
2022/12/28 10:35:28;;;;;;;5.80;1.90;;;7.70;99.90;;;;;;5056994;28;20203;-66
2022/12/28 10:38:02;;;;;;;3.33;1.92;;;7.80;99.90;;;;;;5074315;28;20648;-65
2022/12/28 10:40:33;;;;;;;4.90;1.80;;;7.90;99.90;;;;;;5074673;28;20188;-65
2022/12/28 10:43:01;;;;;;;5.28;1.80;;;7.90;99.90;;;;;;5065301;28;20211;-66
2022/12/28 10:45:35;;;;;;;2.08;1.60;;;8.00;99.90;;;;;;5056635;28;20223;-66
2022/12/28 10:48:09;;;;;;;1.85;1.75;;;8.00;99.90;;;;;;5073709;28;20195;-66
2022/12/28 10:50:41;;;;;;;2.22;2.03;;;8.10;99.90;;;;;;5074289;28;20217;-66
2022/12/28 10:53:25;;;;;;;4.60;2.30;;;8.10;99.90;;;;;;5057580;28;20602;-65
2022/12/28 10:56:05;;;;;;;3.63;3.22;;;8.20;99.90;;;;;;5070279;28;20194;-66
2022/12/28 10:58:34;;;;;;;4.10;2.08;;;8.50;99.90;;;;;;5072679;28;20557;-66
2022/12/28 11:01:05;;;;;;;3.72;2.90;;;8.50;99.90;;;;;;5055837;28;20552;-66
2022/12/28 11:03:35;;;;;;;4.90;4.53;;;8.60;99.90;;;;;;5053219;28;20193;-66
2022/12/28 11:06:12;;;;;;;3.60;2.50;;;8.50;99.90;;;;;;5070571;28;20196;-65
2022/12/28 11:08:43;;;;;;;1.70;1.50;;;8.50;99.90;;;;;;5053980;28;20196;-65
2022/12/28 11:11:19;;;;;;;2.13;1.90;;;8.50;99.90;;;;;;5054259;28;20541;-65
2022/12/28 11:13:53;;;;;;;2.17;2.03;;;8.60;99.90;;;;;;5053666;28;20192;-66
2022/12/28 11:16:21;;;;;;;5.40;2.38;;;8.60;99.90;;;;;;5065832;28;20200;-66
2022/12/28 11:18:50;;;;;;;2.03;1.60;;;8.60;99.90;;;;;;5073420;28;20570;-65
2022/12/28 11:21:21;;;;;;;1.40;1.30;;;8.70;99.90;;;;;;5052336;28;20196;-66
2022/12/28 11:23:52;;;;;;;3.20;2.05;;;8.70;99.90;;;;;;5056396;28;20220;-66
2022/12/28 11:26:20;;;;;;;2.75;1.67;;;8.90;99.90;;;;;;5067970;28;20201;-66
2022/12/28 11:28:50;;;;;;;1.98;1.73;;;9.00;99.90;;;;;;5055963;28;20200;-66
2022/12/28 11:31:23;;;;;;;2.42;1.58;;;9.20;99.90;;;;;;5065345;28;20242;-66
2022/12/28 11:33:54;;;;;;;2.05;1.88;;;9.50;99.90;;;;;;5071563;28;20200;-66
2022/12/28 11:36:25;;;;;;;1.60;1.50;;;9.70;99.90;;;;;;5053738;28;20197;-66
2022/12/28 11:38:56;;;;;;;2.05;1.90;;;9.80;99.90;;;;;;5058110;28;20640;-65
2022/12/28 11:41:45;;;;;;;1.98;1.40;;;9.80;99.90;;;;;;5072201;28;20194;-65
2022/12/28 11:44:43;;;;;;;4.90;1.60;;;9.90;99.90;;;;;;5061807;28;20659;-66
2022/12/28 11:47:31;;;;;;;1.52;1.42;;;9.90;99.90;;;;;;5052864;28;20193;-65
2022/12/28 11:50:56;;;;;;;1.70;1.60;;;10.10;99.90;;;;;;5068967;28;20234;-65
2022/12/28 11:53:53;;;;;;;2.00;1.77;;;10.00;99.90;;;;;;5009815;28;20210;-66
2022/12/28 11:56:22;;;;;;;3.60;1.60;;;10.20;99.90;;;;;;5010694;28;20190;-66
2022/12/28 11:59:19;;;;;;;2.35;1.48;;;10.30;99.90;;;;;;5041816;28;20278;-65
2022/12/28 12:01:56;;;;;;;1.73;1.63;;;10.30;99.90;;;;;;5058398;28;20279;-66
2022/12/28 12:04:37;;;;;;;2.65;1.48;;;10.00;99.90;;;;;;5052900;28;20203;-66
2022/12/28 12:07:46;;;;;;;1.85;1.65;;;9.90;99.90;;;;;;5066010;28;20249;-66
2022/12/28 12:10:32;;;;;;;1.60;1.50;;;10.00;99.90;;;;;;5070482;28;20219;-66
2022/12/28 12:13:02;;;;;;;1.30;1.23;;;9.80;99.90;;;;;;5053635;28;20184;-66
2022/12/28 12:15:40;;;;;;;2.90;1.52;;;9.70;99.90;;;;;;5053010;28;20587;-66
2022/12/28 12:18:18;;;;;;;1.75;1.60;;;9.50;99.90;;;;;;5052200;28;20192;-66
2022/12/28 12:20:55;;;;;;;2.55;1.73;;;9.40;99.90;;;;;;5052329;28;20181;-66
2022/12/28 12:23:40;;;;;;;1.77;1.67;;;9.30;99.90;;;;;;5055248;28;20561;-66
2022/12/28 12:26:20;;;;;;;3.80;1.70;;;9.30;99.90;;;;;;5059736;28;20203;-66
2022/12/28 12:28:50;;;;;;;3.53;1.88;;;9.40;99.90;;;;;;5052208;28;20556;-65
2022/12/28 12:31:25;;;;;;;1.50;1.40;;;9.40;99.90;;;;;;5052325;28;20217;-67
2022/12/28 12:33:57;;;;;;;4.18;2.33;;;9.50;99.90;;;;;;5052122;28;20192;-65
2022/12/28 12:36:52;;;;;;;2.25;1.35;;;9.50;99.90;;;;;;5057361;28;20196;-65
2022/12/28 12:39:42;;;;;;;2.15;1.55;;;9.60;99.90;;;;;;5055242;28;20231;-65
2022/12/28 12:42:20;;;;;;;6.38;1.83;;;9.60;99.90;;;;;;5052221;28;20199;-65
2022/12/28 12:44:57;;;;;;;1.90;1.75;;;9.60;99.90;;;;;;5051461;28;20200;-65
2022/12/28 12:47:47;;;;;;;4.65;1.80;;;9.60;99.90;;;;;;5071618;28;20203;-65
2022/12/28 12:50:46;;;;;;;2.90;1.85;;;9.70;99.90;;;;;;5057396;28;20752;-66
2022/12/28 12:53:28;;;;;;;4.50;1.35;;;9.70;99.90;;;;;;5050745;28;20636;-65
2022/12/28 12:56:05;;;;;;;6.35;1.95;;;9.70;99.90;;;;;;5070350;28;20192;-66
2022/12/28 12:58:48;;;;;;;4.75;1.40;;;9.80;99.90;;;;;;5070349;28;20698;-66
2022/12/28 13:01:27;;;;;;;1.48;1.30;;;9.90;99.90;;;;;;5071482;28;20241;-66
2022/12/28 13:03:59;;;;;;;3.58;1.55;;;9.80;99.90;;;;;;5070147;28;20194;-66
2022/12/28 13:06:30;;;;;;;3.67;1.80;;;9.80;99.90;;;;;;5052620;28;20199;-66
2022/12/28 13:09:02;;;;;;;3.65;1.60;;;9.80;99.90;;;;;;5052114;28;20283;-65
2022/12/28 13:11:31;;;;;;;1.63;1.50;;;9.80;99.90;;;;;;5052502;28;20221;-65
2022/12/28 13:13:59;;;;;;;1.45;1.35;;;9.80;99.90;;;;;;5054302;28;20258;-65
2022/12/28 13:16:30;;;;;;;2.35;1.50;;;9.80;99.90;;;;;;5055421;28;20200;-65
2022/12/28 13:18:59;;;;;;;3.25;1.45;;;9.80;99.90;;;;;;5051769;28;20572;-66
2022/12/28 13:21:29;;;;;;;1.50;1.40;;;9.80;99.90;;;;;;5069737;28;20196;-66
2022/12/28 13:23:59;;;;;;;4.45;4.05;;;9.80;99.90;;;;;;5071888;28;20288;-66
2022/12/28 13:26:29;;;;;;;8.88;5.25;;;9.80;99.90;;;;;;5052492;28;20204;-66
2022/12/28 13:29:01;;;;;;;1.60;1.10;;;9.80;99.90;;;;;;5054652;28;20196;-67
2022/12/28 13:31:33;;;;;;;1.95;1.85;;;9.80;99.90;;;;;;5064679;28;20274;-65
2022/12/28 13:34:03;;;;;;;2.55;2.28;;;9.70;99.90;;;;;;5056447;28;20541;-65
2022/12/28 13:36:31;;;;;;;4.15;3.80;;;9.70;99.90;;;;;;5069918;28;20204;-65
2022/12/28 13:39:09;;;;;;;2.85;2.65;;;9.70;99.90;;;;;;5061782;28;20200;-65
2022/12/28 13:41:42;;;;;;;12.02;7.70;;;9.70;99.90;;;;;;5055738;28;20217;-65
2022/12/28 13:44:29;;;;;;;27.65;18.67;;;9.60;99.90;;;;;;5071960;28;20197;-65
2022/12/28 13:47:02;;;;;;;5.07;4.57;;;9.70;99.90;;;;;;5062424;28;20210;-65
2022/12/28 13:49:36;;;;;;;3.03;2.72;;;9.70;99.90;;;;;;5063382;28;20667;-66